createdAt,value
2022-12-23T00:01:03.027Z,82.70
2022-12-23T00:03:32.210Z,82.70
2022-12-23T00:08:29.364Z,82.70
2022-12-23T00:10:58.663Z,82.80
2022-12-23T00:13:45.318Z,82.60
2022-12-23T00:16:14.959Z,82.70
2022-12-23T00:18:43.736Z,82.80
2022-12-23T00:21:14.199Z,82.80
2022-12-23T00:23:44.345Z,82.90
2022-12-23T00:26:15.440Z,82.90
2022-12-23T00:28:45.321Z,83.00
2022-12-23T00:31:14.425Z,83.10
2022-12-23T00:33:44.730Z,82.80
2022-12-23T00:36:14.713Z,82.90
2022-12-23T00:41:46.425Z,94.40
2022-12-23T00:44:16.018Z,83.00
2022-12-23T00:49:31.377Z,83.40
2022-12-23T00:59:26.559Z,82.90
2022-12-23T01:14:53.628Z,82.90
2022-12-23T01:22:19.487Z,94.70
2022-12-23T01:32:14.312Z,85.40
2022-12-23T01:42:31.337Z,86.10
2022-12-23T01:45:01.066Z,85.70
2022-12-23T01:47:37.304Z,85.70
2022-12-23T01:50:11.817Z,85.60
2022-12-23T01:52:45.697Z,85.50
2022-12-23T01:55:17.159Z,85.80
2022-12-23T01:57:45.902Z,85.50
2022-12-23T02:03:27.574Z,85.50
2022-12-23T02:11:41.417Z,85.40
2022-12-23T02:14:43.904Z,85.20
2022-12-23T02:17:20.790Z,85.30
2022-12-23T02:20:15.837Z,85.30
2022-12-23T02:23:15.925Z,85.20
2022-12-23T02:25:56.979Z,95.30
2022-12-23T02:28:53.733Z,85.40
2022-12-23T02:31:26.580Z,85.30
2022-12-23T02:34:02.361Z,85.50
2022-12-23T02:36:39.866Z,85.60
2022-12-23T02:39:11.397Z,86.00
2022-12-23T02:41:44.136Z,85.90
2022-12-23T02:44:24.658Z,86.20
2022-12-23T02:46:59.981Z,86.30
2022-12-23T02:49:33.261Z,86.50
2022-12-23T02:52:05.949Z,86.60
2022-12-23T02:54:38.486Z,86.50
2022-12-23T02:57:08.793Z,86.50
2022-12-23T02:59:42.175Z,86.70
2022-12-23T03:02:11.779Z,86.90
2022-12-23T03:07:18.728Z,87.30
2022-12-23T03:09:59.075Z,87.30
2022-12-23T03:12:41.175Z,87.40
2022-12-23T03:15:22.274Z,87.20
2022-12-23T03:18:01.622Z,87.20
2022-12-23T03:20:40.331Z,89.90
2022-12-23T03:23:18.717Z,87.10
2022-12-23T03:25:54.831Z,95.10
2022-12-23T03:28:28.811Z,87.40
2022-12-23T03:30:59.774Z,87.60
2022-12-23T03:33:32.861Z,87.90
2022-12-23T03:36:04.980Z,88.00
2022-12-23T03:38:36.679Z,88.40
2022-12-23T03:41:10.199Z,88.40
2022-12-23T03:43:48.375Z,88.60
2022-12-23T03:46:25.020Z,89.00
2022-12-23T03:48:57.734Z,97.30
2022-12-23T03:51:30.200Z,96.00
2022-12-23T03:54:02.726Z,89.30
2022-12-23T03:56:34.053Z,89.30
2022-12-23T03:59:04.425Z,95.90
2022-12-23T04:01:42.585Z,96.20
2022-12-23T04:04:17.143Z,89.60
2022-12-23T04:06:53.010Z,90.00
2022-12-23T04:09:22.806Z,90.20
2022-12-23T04:19:18.103Z,90.20
2022-12-23T04:36:38.575Z,90.00
2022-12-23T04:53:58.377Z,89.70
2022-12-23T05:11:18.281Z,97.40
2022-12-23T05:13:46.414Z,98.10
2022-12-23T05:28:38.358Z,90.60
2022-12-23T05:31:08.638Z,98.10
2022-12-23T05:36:06.273Z,97.20
2022-12-23T05:41:03.508Z,90.80
2022-12-23T05:46:01.388Z,97.20
2022-12-23T05:53:26.238Z,97.30
2022-12-23T05:58:31.105Z,91.10
2022-12-23T06:03:29.864Z,91.10
2022-12-23T06:10:57.456Z,98.60
2022-12-23T06:20:52.031Z,91.20
2022-12-23T06:28:23.006Z,91.10
2022-12-23T06:30:53.945Z,91.10
2022-12-23T06:33:24.988Z,91.00
2022-12-23T06:35:54.539Z,91.00
2022-12-23T06:45:48.847Z,91.00
2022-12-23T06:53:15.872Z,90.90
2022-12-23T06:58:15.321Z,96.80
2022-12-23T07:03:37.359Z,98.30
2022-12-23T07:08:35.807Z,90.80
2022-12-23T07:11:09.679Z,90.80
2022-12-23T07:16:16.548Z,90.80
2022-12-23T07:23:56.628Z,90.70
2022-12-23T07:43:48.111Z,90.90
2022-12-23T07:56:16.715Z,90.70
2022-12-23T08:01:17.621Z,90.60
2022-12-23T08:06:16.535Z,90.60
2022-12-23T08:08:50.896Z,90.70
2022-12-23T08:16:18.791Z,90.60
2022-12-23T08:21:18.046Z,90.70
2022-12-23T08:23:57.115Z,90.70
2022-12-23T08:26:32.757Z,90.60
2022-12-23T08:29:01.705Z,90.60
2022-12-23T08:31:34.137Z,90.70
2022-12-23T08:46:57.367Z,90.90
2022-12-23T09:04:21.308Z,91.00
2022-12-23T09:14:22.848Z,91.00
2022-12-23T09:16:52.025Z,91.70
2022-12-23T09:19:22.013Z,91.00
2022-12-23T09:24:26.895Z,90.90
2022-12-23T09:34:27.875Z,90.90
2022-12-23T09:42:07.182Z,91.10
2022-12-23T09:44:45.666Z,91.10
2022-12-23T09:47:20.423Z,92.10
2022-12-23T09:49:53.610Z,91.20
2022-12-23T09:52:32.142Z,91.20
2022-12-23T09:57:56.858Z,91.20
2022-12-23T10:00:26.126Z,91.30
2022-12-23T10:03:06.364Z,91.20
2022-12-23T10:05:45.618Z,91.20
2022-12-23T10:08:19.737Z,91.30
2022-12-23T10:10:52.935Z,91.90
2022-12-23T10:13:27.431Z,91.10
2022-12-23T10:16:00.985Z,91.10
2022-12-23T10:19:16.764Z,91.20
2022-12-23T10:21:51.680Z,91.30
2022-12-23T10:24:33.571Z,91.30
2022-12-23T10:27:19.461Z,91.90
2022-12-23T10:32:29.006Z,91.70
2022-12-23T10:35:05.674Z,91.60
2022-12-23T10:37:41.119Z,98.90
2022-12-23T10:40:15.931Z,91.50
2022-12-23T10:42:49.726Z,91.40
2022-12-23T10:45:39.310Z,97.80
2022-12-23T10:48:21.558Z,99.00
2022-12-23T10:50:57.395Z,91.60
2022-12-23T10:53:38.231Z,97.60
2022-12-23T11:00:31.772Z,92.40
2022-12-23T11:03:16.666Z,91.60
2022-12-23T11:06:00.715Z,91.60
2022-12-23T11:08:32.625Z,91.50
2022-12-23T11:11:11.389Z,92.00
2022-12-23T11:13:57.043Z,91.70
2022-12-23T11:16:33.801Z,91.80
2022-12-23T11:19:07.597Z,91.60
2022-12-23T11:21:39.857Z,91.50
2022-12-23T11:24:23.504Z,91.50
2022-12-23T11:27:06.524Z,91.50
2022-12-23T11:29:37.184Z,91.30
2022-12-23T11:32:22.120Z,91.20
2022-12-23T11:34:59.366Z,91.20
2022-12-23T11:37:46.131Z,91.20
2022-12-23T11:40:36.028Z,91.20
2022-12-23T11:43:25.848Z,91.20
2022-12-23T11:46:16.619Z,91.20
2022-12-23T11:51:29.347Z,91.20
2022-12-23T11:54:54.398Z,91.10
2022-12-23T11:57:57.314Z,91.10
2022-12-23T12:00:38.015Z,91.00
2022-12-23T12:05:41.104Z,90.80
2022-12-23T12:08:18.591Z,90.80
2022-12-23T12:13:29.749Z,90.80
2022-12-23T12:16:15.364Z,90.70
2022-12-23T12:19:14.760Z,90.70
2022-12-23T12:24:23.935Z,90.50
2022-12-23T12:26:57.958Z,90.40
2022-12-23T12:29:51.530Z,90.80
2022-12-23T12:36:39.622Z,90.30
2022-12-23T12:39:17.059Z,90.30
2022-12-23T12:42:01.634Z,90.30
2022-12-23T12:45:01.361Z,90.30
2022-12-23T12:47:55.720Z,90.60
2022-12-23T12:50:56.297Z,90.50
2022-12-23T12:53:35.500Z,90.70
2022-12-23T12:56:24.386Z,90.70
2022-12-23T13:01:48.713Z,91.10
2022-12-23T13:05:12.825Z,91.10
2022-12-23T13:08:13.079Z,91.10
2022-12-23T13:11:53.059Z,91.20
2022-12-23T13:17:45.514Z,91.10
2022-12-23T13:20:34.576Z,91.00
2022-12-23T13:23:48.705Z,90.90
2022-12-23T13:26:52.536Z,90.70
2022-12-23T13:30:00.749Z,90.70
2022-12-23T13:33:12.910Z,90.80
2022-12-23T13:36:23.333Z,90.80
2022-12-23T13:39:07.369Z,90.80
2022-12-23T13:41:41.585Z,90.70
2022-12-23T13:44:22.180Z,90.80
2022-12-23T13:50:44.598Z,91.90
2022-12-23T13:53:24.015Z,90.80
2022-12-23T13:56:34.703Z,90.90
2022-12-23T13:59:06.820Z,90.80
2022-12-23T14:01:43.613Z,91.00
2022-12-23T14:04:33.653Z,90.90
2022-12-23T14:07:47.166Z,90.80
2022-12-23T14:10:25.720Z,90.80
2022-12-23T14:13:04.518Z,90.80
2022-12-23T14:16:19.327Z,90.80
2022-12-23T14:19:16.725Z,97.20
2022-12-23T14:21:56.568Z,91.10
2022-12-23T14:24:53.492Z,91.00
2022-12-23T14:27:45.684Z,91.00
2022-12-23T14:30:18.472Z,91.00
2022-12-23T14:32:51.661Z,91.00
2022-12-23T14:35:56.253Z,91.10
2022-12-23T14:38:27.755Z,91.10
2022-12-23T14:41:19.261Z,91.00
2022-12-23T14:43:59.389Z,90.60
2022-12-23T14:46:58.407Z,90.90
2022-12-23T14:49:43.064Z,90.90
2022-12-23T14:52:59.550Z,90.90
2022-12-23T14:56:25.121Z,90.60
2022-12-23T14:59:13.932Z,90.60
2022-12-23T15:01:46.930Z,90.60
2022-12-23T20:51:42.265Z,90.00
2022-12-23T20:54:33.667Z,90.30
2022-12-23T20:57:10.501Z,90.20
2022-12-23T21:07:08.592Z,88.20
2022-12-23T21:24:33.701Z,88.30
2022-12-23T21:27:01.932Z,96.30
2022-12-23T21:39:30.351Z,89.20
2022-12-23T21:42:02.441Z,88.90
2022-12-23T21:47:18.094Z,89.90
2022-12-23T21:57:16.335Z,89.70
2022-12-23T22:02:19.671Z,90.10
2022-12-23T22:12:19.105Z,89.90
2022-12-23T22:29:43.005Z,89.00
2022-12-23T22:47:11.470Z,88.90
2022-12-23T22:49:42.992Z,88.70
2022-12-23T23:02:15.093Z,88.00
2022-12-23T23:17:34.461Z,85.20
2022-12-23T23:22:40.494Z,85.40
2022-12-23T23:25:31.950Z,86.50
2022-12-23T23:28:03.360Z,85.00
2022-12-23T23:33:03.595Z,85.20
2022-12-23T23:48:01.390Z,84.90
2022-12-23T23:55:27.184Z,85.60
